sensor_id;sensor_type;location;lat;lon;timestamp;temperature;humidity
45339;DHT22;31071;51.478;5.710;2023-07-28T00:00:29;17.30;99.90
45339;DHT22;31071;51.478;5.710;2023-07-28T00:02:54;17.70;99.90
45339;DHT22;31071;51.478;5.710;2023-07-28T00:05:20;17.30;99.90
45339;DHT22;31071;51.478;5.710;2023-07-28T00:07:45;17.30;99.90
45339;DHT22;31071;51.478;5.710;2023-07-28T00:10:11;17.30;99.90
45339;DHT22;31071;51.478;5.710;2023-07-28T00:12:37;17.30;99.90
45339;DHT22;31071;51.478;5.710;2023-07-28T00:15:02;17.30;99.90
45339;DHT22;31071;51.478;5.710;2023-07-28T00:17:28;17.30;99.90
45339;DHT22;31071;51.478;5.710;2023-07-28T00:19:53;17.30;99.90
45339;DHT22;31071;51.478;5.710;2023-07-28T00:22:19;17.30;99.90
45339;DHT22;31071;51.478;5.710;2023-07-28T00:24:44;17.30;99.90
45339;DHT22;31071;51.478;5.710;2023-07-28T00:27:10;17.30;99.90
45339;DHT22;31071;51.478;5.710;2023-07-28T00:29:38;17.30;99.90
45339;DHT22;31071;51.478;5.710;2023-07-28T00:32:04;17.30;99.90
45339;DHT22;31071;51.478;5.710;2023-07-28T00:34:29;17.30;99.90
45339;DHT22;31071;51.478;5.710;2023-07-28T00:36:55;17.30;99.90
45339;DHT22;31071;51.478;5.710;2023-07-28T00:39:20;17.30;99.90
45339;DHT22;31071;51.478;5.710;2023-07-28T00:41:46;17.30;99.90
45339;DHT22;31071;51.478;5.710;2023-07-28T00:44:12;17.60;99.90
45339;DHT22;31071;51.478;5.710;2023-07-28T00:46:37;19.30;99.90
45339;DHT22;31071;51.478;5.710;2023-07-28T00:49:03;19.30;99.90
45339;DHT22;31071;51.478;5.710;2023-07-28T00:51:30;17.30;99.90
45339;DHT22;31071;51.478;5.710;2023-07-28T00:53:56;17.30;99.90
45339;DHT22;31071;51.478;5.710;2023-07-28T00:56:25;17.30;99.90
45339;DHT22;31071;51.478;5.710;2023-07-28T00:58:51;18.70;99.90
45339;DHT22;31071;51.478;5.710;2023-07-28T01:01:16;18.80;99.90
45339;DHT22;31071;51.478;5.710;2023-07-28T01:03:42;17.30;99.90
45339;DHT22;31071;51.478;5.710;2023-07-28T01:06:29;17.30;99.90
45339;DHT22;31071;51.478;5.710;2023-07-28T01:09:01;17.40;99.90
45339;DHT22;31071;51.478;5.710;2023-07-28T01:11:29;17.30;99.90
45339;DHT22;31071;51.478;5.710;2023-07-28T01:13:54;17.30;99.90
45339;DHT22;31071;51.478;5.710;2023-07-28T01:16:20;17.40;99.90
45339;DHT22;31071;51.478;5.710;2023-07-28T01:18:46;17.30;99.90
45339;DHT22;31071;51.478;5.710;2023-07-28T01:21:26;17.30;99.90
45339;DHT22;31071;51.478;5.710;2023-07-28T01:26:37;17.30;99.90
45339;DHT22;31071;51.478;5.710;2023-07-28T01:29:03;17.40;99.90
45339;DHT22;31071;51.478;5.710;2023-07-28T01:31:30;17.40;99.90
45339;DHT22;31071;51.478;5.710;2023-07-28T01:33:55;17.40;99.90
45339;DHT22;31071;51.478;5.710;2023-07-28T01:36:21;17.50;99.90
45339;DHT22;31071;51.478;5.710;2023-07-28T01:38:46;17.30;99.90
45339;DHT22;31071;51.478;5.710;2023-07-28T01:41:12;17.40;99.90
45339;DHT22;31071;51.478;5.710;2023-07-28T01:43:38;17.40;99.90
45339;DHT22;31071;51.478;5.710;2023-07-28T01:46:03;17.30;99.90
45339;DHT22;31071;51.478;5.710;2023-07-28T01:48:29;17.80;99.90
45339;DHT22;31071;51.478;5.710;2023-07-28T01:50:54;17.30;99.90
45339;DHT22;31071;51.478;5.710;2023-07-28T01:53:20;17.40;99.90
45339;DHT22;31071;51.478;5.710;2023-07-28T01:55:46;17.40;99.90
45339;DHT22;31071;51.478;5.710;2023-07-28T01:58:12;17.40;99.90
45339;DHT22;31071;51.478;5.710;2023-07-28T02:00:37;17.40;99.90
45339;DHT22;31071;51.478;5.710;2023-07-28T02:03:03;17.40;99.90
45339;DHT22;31071;51.478;5.710;2023-07-28T02:05:29;17.40;99.90
45339;DHT22;31071;51.478;5.710;2023-07-28T02:07:55;17.40;99.90
45339;DHT22;31071;51.478;5.710;2023-07-28T02:10:22;17.40;99.90
45339;DHT22;31071;51.478;5.710;2023-07-28T02:12:49;17.40;99.90
45339;DHT22;31071;51.478;5.710;2023-07-28T02:15:16;17.50;99.90
45339;DHT22;31071;51.478;5.710;2023-07-28T02:17:41;17.40;99.90
45339;DHT22;31071;51.478;5.710;2023-07-28T02:20:07;17.40;99.90
45339;DHT22;31071;51.478;5.710;2023-07-28T02:22:36;17.50;99.90
45339;DHT22;31071;51.478;5.710;2023-07-28T02:25:02;17.50;99.90
45339;DHT22;31071;51.478;5.710;2023-07-28T02:27:28;17.50;99.90
45339;DHT22;31071;51.478;5.710;2023-07-28T02:29:54;17.50;99.90
45339;DHT22;31071;51.478;5.710;2023-07-28T02:32:19;17.50;99.90
45339;DHT22;31071;51.478;5.710;2023-07-28T02:34:45;17.50;99.90
45339;DHT22;31071;51.478;5.710;2023-07-28T02:37:11;17.50;99.90
45339;DHT22;31071;51.478;5.710;2023-07-28T02:39:36;17.40;99.90
45339;DHT22;31071;51.478;5.710;2023-07-28T02:42:02;17.50;99.90
45339;DHT22;31071;51.478;5.710;2023-07-28T02:44:27;17.50;99.90
45339;DHT22;31071;51.478;5.710;2023-07-28T02:46:53;17.50;99.90
45339;DHT22;31071;51.478;5.710;2023-07-28T02:49:18;17.50;99.90
45339;DHT22;31071;51.478;5.710;2023-07-28T02:51:44;17.50;99.90
45339;DHT22;31071;51.478;5.710;2023-07-28T02:54:09;17.50;99.90
45339;DHT22;31071;51.478;5.710;2023-07-28T02:56:35;17.50;99.90
45339;DHT22;31071;51.478;5.710;2023-07-28T02:59:03;17.60;99.90
45339;DHT22;31071;51.478;5.710;2023-07-28T03:04:08;17.50;99.90
45339;DHT22;31071;51.478;5.710;2023-07-28T03:06:34;17.50;99.90
45339;DHT22;31071;51.478;5.710;2023-07-28T03:08:59;17.50;99.90
45339;DHT22;31071;51.478;5.710;2023-07-28T03:11:25;17.60;99.90
45339;DHT22;31071;51.478;5.710;2023-07-28T03:13:50;17.60;99.90
45339;DHT22;31071;51.478;5.710;2023-07-28T03:16:16;17.50;99.90
45339;DHT22;31071;51.478;5.710;2023-07-28T03:18:41;17.50;99.90
45339;DHT22;31071;51.478;5.710;2023-07-28T03:21:08;17.60;99.90
45339;DHT22;31071;51.478;5.710;2023-07-28T03:23:34;17.50;99.90
45339;DHT22;31071;51.478;5.710;2023-07-28T03:26:00;17.50;99.90
45339;DHT22;31071;51.478;5.710;2023-07-28T03:28:25;17.50;99.90
45339;DHT22;31071;51.478;5.710;2023-07-28T03:30:51;17.60;99.90
45339;DHT22;31071;51.478;5.710;2023-07-28T03:33:16;17.50;99.90
45339;DHT22;31071;51.478;5.710;2023-07-28T03:35:42;17.50;99.90
45339;DHT22;31071;51.478;5.710;2023-07-28T03:38:07;17.50;99.90
45339;DHT22;31071;51.478;5.710;2023-07-28T03:40:33;17.50;99.90
45339;DHT22;31071;51.478;5.710;2023-07-28T03:42:58;17.50;99.90
45339;DHT22;31071;51.478;5.710;2023-07-28T03:45:24;17.50;99.90
45339;DHT22;31071;51.478;5.710;2023-07-28T03:47:50;17.50;99.90
45339;DHT22;31071;51.478;5.710;2023-07-28T03:50:15;17.50;99.90
45339;DHT22;31071;51.478;5.710;2023-07-28T03:52:41;17.50;99.90
45339;DHT22;31071;51.478;5.710;2023-07-28T03:55:07;17.80;99.90
45339;DHT22;31071;51.478;5.710;2023-07-28T03:57:32;17.50;99.90
45339;DHT22;31071;51.478;5.710;2023-07-28T03:59:58;17.50;99.90
45339;DHT22;31071;51.478;5.710;2023-07-28T04:02:23;17.50;99.90
45339;DHT22;31071;51.478;5.710;2023-07-28T04:04:54;17.50;99.90
45339;DHT22;31071;51.478;5.710;2023-07-28T04:07:20;17.50;99.90
45339;DHT22;31071;51.478;5.710;2023-07-28T04:09:45;17.60;99.90
45339;DHT22;31071;51.478;5.710;2023-07-28T04:12:11;17.60;99.90
45339;DHT22;31071;51.478;5.710;2023-07-28T04:14:36;17.60;99.90
45339;DHT22;31071;51.478;5.710;2023-07-28T04:17:02;17.50;99.90
45339;DHT22;31071;51.478;5.710;2023-07-28T04:19:28;17.60;99.90
45339;DHT22;31071;51.478;5.710;2023-07-28T04:21:56;18.10;99.90
45339;DHT22;31071;51.478;5.710;2023-07-28T04:24:21;17.60;99.90
45339;DHT22;31071;51.478;5.710;2023-07-28T04:26:47;17.60;99.90
45339;DHT22;31071;51.478;5.710;2023-07-28T04:29:14;17.60;99.90
45339;DHT22;31071;51.478;5.710;2023-07-28T04:31:39;17.60;99.90
45339;DHT22;31071;51.478;5.710;2023-07-28T04:34:05;17.60;99.90
45339;DHT22;31071;51.478;5.710;2023-07-28T04:36:30;17.60;99.90
45339;DHT22;31071;51.478;5.710;2023-07-28T04:38:56;17.50;99.90
45339;DHT22;31071;51.478;5.710;2023-07-28T04:41:21;17.50;99.90
45339;DHT22;31071;51.478;5.710;2023-07-28T04:43:47;17.60;99.90
45339;DHT22;31071;51.478;5.710;2023-07-28T04:46:13;18.20;99.90
45339;DHT22;31071;51.478;5.710;2023-07-28T04:48:38;17.60;99.90
45339;DHT22;31071;51.478;5.710;2023-07-28T04:51:04;17.60;99.90
45339;DHT22;31071;51.478;5.710;2023-07-28T04:53:29;17.70;99.90
45339;DHT22;31071;51.478;5.710;2023-07-28T04:55:55;17.60;99.90
45339;DHT22;31071;51.478;5.710;2023-07-28T04:58:20;17.70;99.90
45339;DHT22;31071;51.478;5.710;2023-07-28T05:00:46;17.60;99.90
45339;DHT22;31071;51.478;5.710;2023-07-28T05:03:12;17.60;99.90
45339;DHT22;31071;51.478;5.710;2023-07-28T05:05:37;17.60;99.90
45339;DHT22;31071;51.478;5.710;2023-07-28T05:08:03;17.60;99.90
45339;DHT22;31071;51.478;5.710;2023-07-28T05:10:28;17.60;99.90
45339;DHT22;31071;51.478;5.710;2023-07-28T05:12:54;17.60;99.90
45339;DHT22;31071;51.478;5.710;2023-07-28T05:15:19;17.60;99.90
45339;DHT22;31071;51.478;5.710;2023-07-28T05:17:45;17.60;99.90
45339;DHT22;31071;51.478;5.710;2023-07-28T05:20:11;17.60;99.90
45339;DHT22;31071;51.478;5.710;2023-07-28T05:22:36;17.70;99.90
45339;DHT22;31071;51.478;5.710;2023-07-28T05:25:02;17.70;99.90
45339;DHT22;31071;51.478;5.710;2023-07-28T05:27:27;17.70;99.90
45339;DHT22;31071;51.478;5.710;2023-07-28T05:29:53;18.30;99.90
45339;DHT22;31071;51.478;5.710;2023-07-28T05:32:18;17.70;99.90
45339;DHT22;31071;51.478;5.710;2023-07-28T05:34:44;17.70;99.90
45339;DHT22;31071;51.478;5.710;2023-07-28T05:37:10;17.70;99.90
45339;DHT22;31071;51.478;5.710;2023-07-28T05:39:36;17.70;99.90
45339;DHT22;31071;51.478;5.710;2023-07-28T05:42:01;17.70;99.90
45339;DHT22;31071;51.478;5.710;2023-07-28T05:44:28;17.70;99.90
45339;DHT22;31071;51.478;5.710;2023-07-28T05:46:53;17.70;99.90
45339;DHT22;31071;51.478;5.710;2023-07-28T05:49:19;17.80;99.90
45339;DHT22;31071;51.478;5.710;2023-07-28T05:51:44;17.80;99.90
45339;DHT22;31071;51.478;5.710;2023-07-28T05:54:10;17.80;99.90
45339;DHT22;31071;51.478;5.710;2023-07-28T05:56:35;17.80;99.90
45339;DHT22;31071;51.478;5.710;2023-07-28T05:59:01;17.80;99.90
45339;DHT22;31071;51.478;5.710;2023-07-28T06:01:26;17.80;99.90
45339;DHT22;31071;51.478;5.710;2023-07-28T06:03:52;17.80;99.90
45339;DHT22;31071;51.478;5.710;2023-07-28T06:06:21;17.80;99.90
45339;DHT22;31071;51.478;5.710;2023-07-28T06:08:47;17.80;99.90
45339;DHT22;31071;51.478;5.710;2023-07-28T06:11:12;17.90;99.90
45339;DHT22;31071;51.478;5.710;2023-07-28T06:13:38;17.90;99.90
45339;DHT22;31071;51.478;5.710;2023-07-28T06:16:04;17.90;99.90
45339;DHT22;31071;51.478;5.710;2023-07-28T06:18:29;18.00;99.90
45339;DHT22;31071;51.478;5.710;2023-07-28T06:20:55;18.40;99.90
45339;DHT22;31071;51.478;5.710;2023-07-28T06:23:20;18.00;99.90
45339;DHT22;31071;51.478;5.710;2023-07-28T06:25:46;18.10;99.90
45339;DHT22;31071;51.478;5.710;2023-07-28T06:28:12;18.10;99.90
45339;DHT22;31071;51.478;5.710;2023-07-28T06:30:38;18.10;99.90
45339;DHT22;31071;51.478;5.710;2023-07-28T06:33:06;18.10;99.90
45339;DHT22;31071;51.478;5.710;2023-07-28T06:35:32;18.20;99.90
45339;DHT22;31071;51.478;5.710;2023-07-28T06:37:57;20.10;99.90
45339;DHT22;31071;51.478;5.710;2023-07-28T06:40:23;18.20;99.90
45339;DHT22;31071;51.478;5.710;2023-07-28T06:42:48;18.30;99.90
45339;DHT22;31071;51.478;5.710;2023-07-28T06:45:14;19.30;99.90
45339;DHT22;31071;51.478;5.710;2023-07-28T06:47:39;19.60;99.90
45339;DHT22;31071;51.478;5.710;2023-07-28T06:50:05;18.30;99.90
45339;DHT22;31071;51.478;5.710;2023-07-28T06:52:31;18.40;99.90
45339;DHT22;31071;51.478;5.710;2023-07-28T06:54:57;18.40;99.90
45339;DHT22;31071;51.478;5.710;2023-07-28T06:57:22;18.50;99.90
45339;DHT22;31071;51.478;5.710;2023-07-28T06:59:50;18.40;99.90
45339;DHT22;31071;51.478;5.710;2023-07-28T07:02:16;18.40;99.90
45339;DHT22;31071;51.478;5.710;2023-07-28T07:04:43;18.40;99.90
45339;DHT22;31071;51.478;5.710;2023-07-28T07:07:09;18.40;99.90
45339;DHT22;31071;51.478;5.710;2023-07-28T07:09:35;18.40;99.90
45339;DHT22;31071;51.478;5.710;2023-07-28T07:12:00;18.50;99.90
45339;DHT22;31071;51.478;5.710;2023-07-28T07:14:26;18.60;99.90
45339;DHT22;31071;51.478;5.710;2023-07-28T07:16:51;18.60;99.90
45339;DHT22;31071;51.478;5.710;2023-07-28T07:19:17;18.70;99.90
45339;DHT22;31071;51.478;5.710;2023-07-28T07:21:42;18.60;99.90
45339;DHT22;31071;51.478;5.710;2023-07-28T07:24:10;18.80;99.90
45339;DHT22;31071;51.478;5.710;2023-07-28T07:26:42;18.80;99.90
45339;DHT22;31071;51.478;5.710;2023-07-28T07:29:38;18.70;99.90
45339;DHT22;31071;51.478;5.710;2023-07-28T07:32:10;18.70;99.90
45339;DHT22;31071;51.478;5.710;2023-07-28T07:34:36;18.80;99.90
45339;DHT22;31071;51.478;5.710;2023-07-28T07:37:03;18.80;99.90
45339;DHT22;31071;51.478;5.710;2023-07-28T07:39:29;18.70;99.90
45339;DHT22;31071;51.478;5.710;2023-07-28T07:41:55;18.80;99.90
45339;DHT22;31071;51.478;5.710;2023-07-28T07:44:20;18.90;99.90
45339;DHT22;31071;51.478;5.710;2023-07-28T07:46:46;18.80;99.90
45339;DHT22;31071;51.478;5.710;2023-07-28T07:49:11;18.80;99.90
45339;DHT22;31071;51.478;5.710;2023-07-28T07:51:42;19.60;99.90
45339;DHT22;31071;51.478;5.710;2023-07-28T07:54:08;19.00;99.90
45339;DHT22;31071;51.478;5.710;2023-07-28T07:56:33;18.90;99.90
45339;DHT22;31071;51.478;5.710;2023-07-28T07:58:59;19.00;99.90
45339;DHT22;31071;51.478;5.710;2023-07-28T08:01:25;20.80;99.90
45339;DHT22;31071;51.478;5.710;2023-07-28T08:03:50;18.90;99.90
45339;DHT22;31071;51.478;5.710;2023-07-28T08:06:16;18.90;99.90
45339;DHT22;31071;51.478;5.710;2023-07-28T08:08:42;19.20;99.90
45339;DHT22;31071;51.478;5.710;2023-07-28T08:11:07;19.00;99.90
45339;DHT22;31071;51.478;5.710;2023-07-28T08:13:33;19.20;99.90
45339;DHT22;31071;51.478;5.710;2023-07-28T08:15:58;19.00;99.90
45339;DHT22;31071;51.478;5.710;2023-07-28T08:18:25;19.30;99.90
45339;DHT22;31071;51.478;5.710;2023-07-28T08:20:51;19.60;99.90
45339;DHT22;31071;51.478;5.710;2023-07-28T08:23:16;19.20;99.90
45339;DHT22;31071;51.478;5.710;2023-07-28T08:25:46;20.00;99.90
45339;DHT22;31071;51.478;5.710;2023-07-28T08:28:11;20.00;99.90
45339;DHT22;31071;51.478;5.710;2023-07-28T08:30:37;20.20;99.90
45339;DHT22;31071;51.478;5.710;2023-07-28T08:33:02;19.20;99.90
45339;DHT22;31071;51.478;5.710;2023-07-28T08:35:28;20.00;99.90
45339;DHT22;31071;51.478;5.710;2023-07-28T08:37:54;18.20;99.90
45339;DHT22;31071;51.478;5.710;2023-07-28T08:40:20;19.20;99.90
45339;DHT22;31071;51.478;5.710;2023-07-28T08:42:45;20.70;99.90
45339;DHT22;31071;51.478;5.710;2023-07-28T08:45:12;19.20;99.90
45339;DHT22;31071;51.478;5.710;2023-07-28T08:47:38;20.10;99.90
45339;DHT22;31071;51.478;5.710;2023-07-28T08:50:04;20.20;99.90
45339;DHT22;31071;51.478;5.710;2023-07-28T08:52:31;19.40;99.90
45339;DHT22;31071;51.478;5.710;2023-07-28T08:54:57;20.30;99.90
45339;DHT22;31071;51.478;5.710;2023-07-28T08:57:23;20.10;99.90
45339;DHT22;31071;51.478;5.710;2023-07-28T08:59:48;19.90;99.90
45339;DHT22;31071;51.478;5.710;2023-07-28T09:02:16;20.10;99.90
45339;DHT22;31071;51.478;5.710;2023-07-28T09:04:42;20.40;99.90
45339;DHT22;31071;51.478;5.710;2023-07-28T09:07:08;20.60;99.90
45339;DHT22;31071;51.478;5.710;2023-07-28T09:09:34;20.90;99.90
45339;DHT22;31071;51.478;5.710;2023-07-28T09:12:00;21.20;99.90
45339;DHT22;31071;51.478;5.710;2023-07-28T09:14:26;21.40;99.90
45339;DHT22;31071;51.478;5.710;2023-07-28T09:16:52;21.90;99.90
45339;DHT22;31071;51.478;5.710;2023-07-28T09:19:20;21.60;99.90
45339;DHT22;31071;51.478;5.710;2023-07-28T09:21:57;21.70;99.90
45339;DHT22;31071;51.478;5.710;2023-07-28T09:24:33;21.40;99.90
45339;DHT22;31071;51.478;5.710;2023-07-28T09:26:59;21.50;99.90
45339;DHT22;31071;51.478;5.710;2023-07-28T09:29:26;21.60;99.90
45339;DHT22;31071;51.478;5.710;2023-07-28T09:31:53;21.50;99.90
45339;DHT22;31071;51.478;5.710;2023-07-28T09:34:28;21.50;99.90
45339;DHT22;31071;51.478;5.710;2023-07-28T09:36:58;21.40;99.90
45339;DHT22;31071;51.478;5.710;2023-07-28T09:39:24;21.60;99.90
45339;DHT22;31071;51.478;5.710;2023-07-28T09:41:51;21.60;99.90
45339;DHT22;31071;51.478;5.710;2023-07-28T09:44:17;21.90;99.90
45339;DHT22;31071;51.478;5.710;2023-07-28T09:46:49;22.50;99.90
45339;DHT22;31071;51.478;5.710;2023-07-28T09:49:21;22.00;99.90
45339;DHT22;31071;51.478;5.710;2023-07-28T09:51:49;22.80;99.90
45339;DHT22;31071;51.478;5.710;2023-07-28T09:54:24;21.90;99.90
45339;DHT22;31071;51.478;5.710;2023-07-28T09:56:55;21.90;99.90
45339;DHT22;31071;51.478;5.710;2023-07-28T09:59:57;21.80;99.90
45339;DHT22;31071;51.478;5.710;2023-07-28T10:02:17;21.90;99.90
45339;DHT22;31071;51.478;5.710;2023-07-28T10:04:43;22.00;99.90
45339;DHT22;31071;51.478;5.710;2023-07-28T10:07:09;22.00;99.90
45339;DHT22;31071;51.478;5.710;2023-07-28T10:09:36;22.50;99.90
45339;DHT22;31071;51.478;5.710;2023-07-28T10:12:03;22.60;99.90
45339;DHT22;31071;51.478;5.710;2023-07-28T10:14:36;23.00;99.90
45339;DHT22;31071;51.478;5.710;2023-07-28T10:17:05;23.30;99.90
45339;DHT22;31071;51.478;5.710;2023-07-28T10:19:35;23.30;99.90
45339;DHT22;31071;51.478;5.710;2023-07-28T10:22:08;23.10;99.90
45339;DHT22;31071;51.478;5.710;2023-07-28T10:24:50;22.80;99.90
45339;DHT22;31071;51.478;5.710;2023-07-28T10:27:35;22.40;99.90
45339;DHT22;31071;51.478;5.710;2023-07-28T10:30:09;22.40;99.90
45339;DHT22;31071;51.478;5.710;2023-07-28T10:32:38;22.30;99.90
45339;DHT22;31071;51.478;5.710;2023-07-28T10:35:09;22.80;99.90
45339;DHT22;31071;51.478;5.710;2023-07-28T10:37:47;23.00;99.90
45339;DHT22;31071;51.478;5.710;2023-07-28T10:40:29;22.60;99.90
45339;DHT22;31071;51.478;5.710;2023-07-28T10:43:00;21.90;99.90
45339;DHT22;31071;51.478;5.710;2023-07-28T10:45:28;21.90;99.90
45339;DHT22;31071;51.478;5.710;2023-07-28T10:47:54;22.30;99.90
45339;DHT22;31071;51.478;5.710;2023-07-28T10:50:27;22.30;99.90
45339;DHT22;31071;51.478;5.710;2023-07-28T10:52:53;22.60;99.90
45339;DHT22;31071;51.478;5.710;2023-07-28T10:55:20;22.70;99.90
45339;DHT22;31071;51.478;5.710;2023-07-28T10:57:47;23.10;99.90
45339;DHT22;31071;51.478;5.710;2023-07-28T11:00:15;23.00;99.90
45339;DHT22;31071;51.478;5.710;2023-07-28T11:02:46;23.20;99.90
45339;DHT22;31071;51.478;5.710;2023-07-28T11:05:14;23.40;99.90
45339;DHT22;31071;51.478;5.710;2023-07-28T11:07:43;23.70;99.90
45339;DHT22;31071;51.478;5.710;2023-07-28T11:10:10;23.80;99.90
45339;DHT22;31071;51.478;5.710;2023-07-28T11:12:39;23.90;99.90
45339;DHT22;31071;51.478;5.710;2023-07-28T11:15:08;24.40;99.90
45339;DHT22;31071;51.478;5.710;2023-07-28T11:17:40;24.50;99.90
45339;DHT22;31071;51.478;5.710;2023-07-28T11:20:26;25.00;99.90
45339;DHT22;31071;51.478;5.710;2023-07-28T11:22:54;25.20;99.90
45339;DHT22;31071;51.478;5.710;2023-07-28T11:25:20;24.40;99.90
45339;DHT22;31071;51.478;5.710;2023-07-28T11:27:47;24.00;99.90
45339;DHT22;31071;51.478;5.710;2023-07-28T11:30:14;24.20;99.90
45339;DHT22;31071;51.478;5.710;2023-07-28T11:32:43;24.80;99.90
45339;DHT22;31071;51.478;5.710;2023-07-28T11:35:11;24.00;99.90
45339;DHT22;31071;51.478;5.710;2023-07-28T11:37:42;24.00;99.90
45339;DHT22;31071;51.478;5.710;2023-07-28T11:40:09;24.60;99.90
45339;DHT22;31071;51.478;5.710;2023-07-28T11:42:38;24.40;99.90
45339;DHT22;31071;51.478;5.710;2023-07-28T11:45:05;24.30;99.90
45339;DHT22;31071;51.478;5.710;2023-07-28T11:47:32;26.10;99.90
45339;DHT22;31071;51.478;5.710;2023-07-28T11:49:58;27.70;99.90
45339;DHT22;31071;51.478;5.710;2023-07-28T11:52:44;27.20;99.90
45339;DHT22;31071;51.478;5.710;2023-07-28T11:55:11;26.20;99.90
45339;DHT22;31071;51.478;5.710;2023-07-28T11:57:36;25.80;99.90
45339;DHT22;31071;51.478;5.710;2023-07-28T12:00:04;25.60;99.90
45339;DHT22;31071;51.478;5.710;2023-07-28T12:02:31;26.20;99.90
45339;DHT22;31071;51.478;5.710;2023-07-28T12:04:58;26.50;99.60
45339;DHT22;31071;51.478;5.710;2023-07-28T12:07:33;25.80;99.90
45339;DHT22;31071;51.478;5.710;2023-07-28T12:10:06;25.30;99.90
45339;DHT22;31071;51.478;5.710;2023-07-28T12:12:42;24.80;99.90
45339;DHT22;31071;51.478;5.710;2023-07-28T12:15:28;24.70;99.90
45339;DHT22;31071;51.478;5.710;2023-07-28T12:18:04;24.60;99.90
45339;DHT22;31071;51.478;5.710;2023-07-28T12:20:38;24.70;99.90
45339;DHT22;31071;51.478;5.710;2023-07-28T12:23:05;24.20;99.90
45339;DHT22;31071;51.478;5.710;2023-07-28T12:25:31;24.10;99.90
45339;DHT22;31071;51.478;5.710;2023-07-28T12:27:57;24.10;99.90
45339;DHT22;31071;51.478;5.710;2023-07-28T12:30:22;23.80;99.90
45339;DHT22;31071;51.478;5.710;2023-07-28T12:32:48;23.90;99.90
45339;DHT22;31071;51.478;5.710;2023-07-28T12:35:14;23.90;99.90
45339;DHT22;31071;51.478;5.710;2023-07-28T12:37:39;23.80;99.90
45339;DHT22;31071;51.478;5.710;2023-07-28T12:40:06;23.90;99.90
45339;DHT22;31071;51.478;5.710;2023-07-28T12:42:32;23.60;99.90
45339;DHT22;31071;51.478;5.710;2023-07-28T12:44:57;23.50;99.90
45339;DHT22;31071;51.478;5.710;2023-07-28T12:47:23;23.40;99.90
45339;DHT22;31071;51.478;5.710;2023-07-28T12:49:49;23.40;99.90
45339;DHT22;31071;51.478;5.710;2023-07-28T12:52:15;23.80;99.90
45339;DHT22;31071;51.478;5.710;2023-07-28T12:54:41;23.70;99.90
45339;DHT22;31071;51.478;5.710;2023-07-28T12:57:08;24.00;99.90
45339;DHT22;31071;51.478;5.710;2023-07-28T12:59:36;24.20;99.90
45339;DHT22;31071;51.478;5.710;2023-07-28T13:02:02;24.40;99.90
45339;DHT22;31071;51.478;5.710;2023-07-28T13:04:27;24.60;99.90
45339;DHT22;31071;51.478;5.710;2023-07-28T13:06:53;24.80;99.90
45339;DHT22;31071;51.478;5.710;2023-07-28T13:09:19;25.40;99.90
45339;DHT22;31071;51.478;5.710;2023-07-28T13:11:44;26.10;99.90
45339;DHT22;31071;51.478;5.710;2023-07-28T13:14:10;27.40;99.90
45339;DHT22;31071;51.478;5.710;2023-07-28T13:16:35;27.60;99.90
45339;DHT22;31071;51.478;5.710;2023-07-28T13:19:03;27.90;98.90
45339;DHT22;31071;51.478;5.710;2023-07-28T13:21:29;28.40;97.80
45339;DHT22;31071;51.478;5.710;2023-07-28T13:23:54;27.60;97.10
45339;DHT22;31071;51.478;5.710;2023-07-28T13:26:25;27.00;98.10
45339;DHT22;31071;51.478;5.710;2023-07-28T13:28:51;26.60;98.60
45339;DHT22;31071;51.478;5.710;2023-07-28T13:31:17;27.60;99.90
45339;DHT22;31071;51.478;5.710;2023-07-28T13:33:43;25.90;99.90
45339;DHT22;31071;51.478;5.710;2023-07-28T13:36:09;25.60;99.90
45339;DHT22;31071;51.478;5.710;2023-07-28T13:38:35;25.10;99.90
45339;DHT22;31071;51.478;5.710;2023-07-28T13:41:03;25.10;99.90
45339;DHT22;31071;51.478;5.710;2023-07-28T13:43:29;25.10;99.90
45339;DHT22;31071;51.478;5.710;2023-07-28T13:45:55;25.00;99.90
45339;DHT22;31071;51.478;5.710;2023-07-28T13:48:20;25.10;99.90
45339;DHT22;31071;51.478;5.710;2023-07-28T13:50:46;25.10;99.90
45339;DHT22;31071;51.478;5.710;2023-07-28T13:53:11;25.20;99.90
45339;DHT22;31071;51.478;5.710;2023-07-28T13:55:37;25.30;99.90
45339;DHT22;31071;51.478;5.710;2023-07-28T13:58:04;25.30;99.90
45339;DHT22;31071;51.478;5.710;2023-07-28T14:00:29;25.10;99.90
45339;DHT22;31071;51.478;5.710;2023-07-28T14:02:55;24.60;99.90
45339;DHT22;31071;51.478;5.710;2023-07-28T14:05:20;24.40;99.90
45339;DHT22;31071;51.478;5.710;2023-07-28T14:07:48;24.30;99.90
45339;DHT22;31071;51.478;5.710;2023-07-28T14:10:13;24.20;99.90
45339;DHT22;31071;51.478;5.710;2023-07-28T14:12:39;24.20;99.90
45339;DHT22;31071;51.478;5.710;2023-07-28T14:15:07;24.40;99.90
45339;DHT22;31071;51.478;5.710;2023-07-28T14:17:32;24.20;99.90
45339;DHT22;31071;51.478;5.710;2023-07-28T14:19:58;24.30;99.90
45339;DHT22;31071;51.478;5.710;2023-07-28T14:22:23;24.40;99.90
45339;DHT22;31071;51.478;5.710;2023-07-28T14:24:49;24.60;99.90
45339;DHT22;31071;51.478;5.710;2023-07-28T14:27:15;24.60;99.90
45339;DHT22;31071;51.478;5.710;2023-07-28T14:29:41;24.30;99.90
45339;DHT22;31071;51.478;5.710;2023-07-28T14:32:07;24.20;99.90
45339;DHT22;31071;51.478;5.710;2023-07-28T14:34:33;24.10;99.90
45339;DHT22;31071;51.478;5.710;2023-07-28T14:37:03;23.80;99.90
45339;DHT22;31071;51.478;5.710;2023-07-28T14:39:30;23.70;99.90
45339;DHT22;31071;51.478;5.710;2023-07-28T14:41:56;24.00;99.90
45339;DHT22;31071;51.478;5.710;2023-07-28T14:44:21;23.60;99.90
45339;DHT22;31071;51.478;5.710;2023-07-28T14:46:47;23.60;99.90
45339;DHT22;31071;51.478;5.710;2023-07-28T14:49:12;23.70;99.90
45339;DHT22;31071;51.478;5.710;2023-07-28T14:51:38;24.10;99.90
45339;DHT22;31071;51.478;5.710;2023-07-28T14:54:04;24.90;99.90
45339;DHT22;31071;51.478;5.710;2023-07-28T14:56:29;25.30;99.90
45339;DHT22;31071;51.478;5.710;2023-07-28T14:58:55;25.80;99.90
45339;DHT22;31071;51.478;5.710;2023-07-28T15:01:21;25.80;99.90
45339;DHT22;31071;51.478;5.710;2023-07-28T15:03:47;25.70;99.90
45339;DHT22;31071;51.478;5.710;2023-07-28T15:06:12;25.30;99.90
45339;DHT22;31071;51.478;5.710;2023-07-28T15:08:38;25.20;99.90
45339;DHT22;31071;51.478;5.710;2023-07-28T15:11:03;24.60;99.90
45339;DHT22;31071;51.478;5.710;2023-07-28T15:13:29;24.30;99.90
45339;DHT22;31071;51.478;5.710;2023-07-28T15:15:55;24.10;99.90
45339;DHT22;31071;51.478;5.710;2023-07-28T15:18:20;23.80;99.90
45339;DHT22;31071;51.478;5.710;2023-07-28T15:20:46;23.80;99.90
45339;DHT22;31071;51.478;5.710;2023-07-28T15:23:12;23.70;99.90
45339;DHT22;31071;51.478;5.710;2023-07-28T15:25:37;23.70;99.90
45339;DHT22;31071;51.478;5.710;2023-07-28T15:28:11;23.80;99.90
45339;DHT22;31071;51.478;5.710;2023-07-28T15:30:37;24.00;99.90
45339;DHT22;31071;51.478;5.710;2023-07-28T15:33:03;24.10;99.90